Time;durP1;ratioP1;P1;durP2;ratioP2;P2;SDS_P1;SDS_P2;PMS_P1;PMS_P2;Temp;Humidity;BMP_temperature;BMP_pressure;BME280_temperature;BME280_humidity;BME280_pressure;Samples;Min_cycle;Max_cycle;Signal;HPM_P1;HPM_P2
2023/05/25 00:00:24;;;;;;;8.10;6.28;;;;;;;;;;5053819;28;20012;-64
2023/05/25 00:02:53;;;;;;;6.25;5.65;;;;;;;;;;5053795;28;20021;-64
2023/05/25 00:05:19;;;;;;;7.82;5.82;;;;;;;;;;5053797;28;20090;-64
2023/05/25 00:07:45;;;;;;;7.30;5.75;;;;;;;;;;5055361;28;20033;-64
2023/05/25 00:10:10;;;;;;;8.18;6.40;;;;;;;;;;5073784;28;20032;-64
2023/05/25 00:12:36;;;;;;;6.93;6.13;;;;;;;;;;5073933;28;20116;-64
2023/05/25 00:15:02;;;;;;;7.90;5.72;;;;;;;;;;5055956;28;20033;-66
2023/05/25 00:17:30;;;;;;;6.22;5.68;;;;;;;;;;5035748;28;20032;-66
2023/05/25 00:20:13;;;;;;;6.88;5.53;;;;;;;;;;5054251;28;20060;-66
2023/05/25 00:22:43;;;;;;;6.53;5.90;;;;;;;;;;5057106;28;20029;-64
2023/05/25 00:25:09;;;;;;;6.78;5.90;;;;;;;;;;5057338;28;20033;-64
2023/05/25 00:27:35;;;;;;;7.13;5.95;;;;;;;;;;5057398;28;20369;-64
2023/05/25 00:30:00;;;;;;;6.47;5.88;;;;;;;;;;5039180;28;20041;-65
2023/05/25 00:32:26;;;;;;;8.55;5.95;;;;;;;;;;5070813;28;20016;-65
2023/05/25 00:34:52;;;;;;;7.20;5.72;;;;;;;;;;5077056;28;20035;-63
2023/05/25 00:37:18;;;;;;;7.68;6.25;;;;;;;;;;5039895;28;20029;-63
2023/05/25 00:39:43;;;;;;;6.20;5.57;;;;;;;;;;5039479;28;20044;-63
2023/05/25 00:42:09;;;;;;;5.72;5.20;;;;;;;;;;5039462;28;20032;-63
2023/05/25 00:44:35;;;;;;;7.65;6.13;;;;;;;;;;5057199;28;20033;-70
2023/05/25 00:47:01;;;;;;;6.53;5.45;;;;;;;;;;5056605;28;20032;-70
2023/05/25 00:49:29;;;;;;;7.47;5.60;;;;;;;;;;5057001;28;20413;-70
2023/05/25 00:51:55;;;;;;;8.00;5.72;;;;;;;;;;5056893;28;20055;-71
2023/05/25 00:54:21;;;;;;;6.90;5.55;;;;;;;;;;5056991;28;20108;-71
2023/05/25 00:56:51;;;;;;;6.30;5.75;;;;;;;;;;5022639;28;20036;-70
2023/05/25 00:59:23;;;;;;;10.30;7.18;;;;;;;;;;5022844;28;20496;-65
2023/05/25 01:01:52;;;;;;;8.35;6.13;;;;;;;;;;5038834;28;20033;-64
2023/05/25 01:04:20;;;;;;;6.95;6.22;;;;;;;;;;5022147;28;20028;-64
2023/05/25 01:06:47;;;;;;;7.70;6.88;;;;;;;;;;5056731;28;20112;-64
2023/05/25 01:09:14;;;;;;;9.23;7.10;;;;;;;;;;5022159;28;20029;-65
2023/05/25 01:11:44;;;;;;;9.63;7.18;;;;;;;;;;5056383;28;20031;-64
2023/05/25 01:14:10;;;;;;;7.95;6.15;;;;;;;;;;5038714;28;20025;-65
2023/05/25 01:16:36;;;;;;;8.30;7.43;;;;;;;;;;5038463;28;20043;-64
2023/05/25 01:19:02;;;;;;;9.55;8.30;;;;;;;;;;5056540;28;20041;-65
2023/05/25 01:21:30;;;;;;;8.68;7.43;;;;;;;;;;5056570;28;20029;-65
2023/05/25 01:24:03;;;;;;;9.52;7.70;;;;;;;;;;5058900;28;20064;-65
2023/05/25 01:26:31;;;;;;;9.48;8.02;;;;;;;;;;5058393;28;20058;-64
2023/05/25 01:29:00;;;;;;;9.38;7.88;;;;;;;;;;5042081;28;20423;-64
2023/05/25 01:31:27;;;;;;;9.02;6.80;;;;;;;;;;5057812;28;20044;-66
2023/05/25 01:33:53;;;;;;;10.85;8.50;;;;;;;;;;5040202;28;20123;-65
2023/05/25 01:36:19;;;;;;;10.98;7.97;;;;;;;;;;5075443;23;20055;-66
2023/05/25 01:38:45;;;;;;;8.60;7.70;;;;;;;;;;5086409;28;20048;-64
2023/05/25 01:41:12;;;;;;;12.80;8.35;;;;;;;;;;5080859;28;20051;-64
2023/05/25 01:43:37;;;;;;;9.77;7.03;;;;;;;;;;5096254;28;20073;-63
2023/05/25 01:46:13;;;;;;;12.75;9.93;;;;;;;;;;5085420;28;20103;-65
2023/05/25 01:48:48;;;;;;;11.15;8.23;;;;;;;;;;5094444;28;20115;-65
2023/05/25 01:51:15;;;;;;;11.90;8.18;;;;;;;;;;5074512;28;20031;-64
2023/05/25 01:53:47;;;;;;;9.52;8.35;;;;;;;;;;5091009;28;20392;-63
2023/05/25 01:56:13;;;;;;;9.05;7.82;;;;;;;;;;5041480;28;20051;-64
2023/05/25 01:58:40;;;;;;;11.70;8.68;;;;;;;;;;5074439;28;20490;-64
2023/05/25 02:01:08;;;;;;;10.73;8.80;;;;;;;;;;5074547;28;20475;-65
2023/05/25 02:03:33;;;;;;;9.80;7.82;;;;;;;;;;5048300;28;20379;-64
2023/05/25 02:05:59;;;;;;;10.98;8.07;;;;;;;;;;5077804;28;20032;-64
2023/05/25 02:08:24;;;;;;;10.05;8.80;;;;;;;;;;5077877;28;20024;-64
2023/05/25 02:10:50;;;;;;;10.10;8.35;;;;;;;;;;5077601;28;20448;-63
2023/05/25 02:13:15;;;;;;;10.98;8.65;;;;;;;;;;5077525;28;20038;-63
2023/05/25 02:15:41;;;;;;;12.25;8.82;;;;;;;;;;5096000;28;20110;-63
2023/05/25 02:18:07;;;;;;;8.70;7.78;;;;;;;;;;5077215;28;20032;-63
2023/05/25 02:20:33;;;;;;;12.55;8.88;;;;;;;;;;5077147;28;20032;-63
2023/05/25 02:22:58;;;;;;;11.93;8.35;;;;;;;;;;5095159;28;20024;-63
2023/05/25 02:25:23;;;;;;;9.65;7.68;;;;;;;;;;5095581;28;20106;-64
2023/05/25 02:27:49;;;;;;;10.77;8.55;;;;;;;;;;5095638;28;20028;-71
2023/05/25 02:30:14;;;;;;;10.48;8.48;;;;;;;;;;5077394;28;20455;-67
2023/05/25 02:32:40;;;;;;;10.82;8.93;;;;;;;;;;5077416;28;20133;-67
2023/05/25 02:35:06;;;;;;;8.60;7.72;;;;;;;;;;5076833;28;20407;-67
2023/05/25 02:37:32;;;;;;;11.20;8.35;;;;;;;;;;5076917;28;20111;-67
2023/05/25 02:39:58;;;;;;;12.20;9.32;;;;;;;;;;5088953;28;20121;-66
2023/05/25 02:42:23;;;;;;;11.85;8.80;;;;;;;;;;5073017;28;20024;-66
2023/05/25 02:44:49;;;;;;;11.93;8.30;;;;;;;;;;5074744;28;20039;-67
2023/05/25 02:47:15;;;;;;;9.52;8.38;;;;;;;;;;5073333;28;20041;-67
2023/05/25 02:49:40;;;;;;;9.70;8.02;;;;;;;;;;5056911;28;20103;-66
2023/05/25 02:52:06;;;;;;;10.20;8.48;;;;;;;;;;5073447;28;20048;-67
2023/05/25 02:54:31;;;;;;;9.38;8.45;;;;;;;;;;5056855;28;20039;-66
2023/05/25 02:56:56;;;;;;;9.52;8.52;;;;;;;;;;5107176;28;20035;-66
2023/05/25 02:59:23;;;;;;;10.70;8.68;;;;;;;;;;5056756;28;20032;-68
2023/05/25 03:01:49;;;;;;;10.63;8.00;;;;;;;;;;5074509;28;20037;-64
2023/05/25 03:04:14;;;;;;;10.48;8.35;;;;;;;;;;5074314;28;20028;-63
2023/05/25 03:06:42;;;;;;;10.10;8.32;;;;;;;;;;5074432;28;20372;-64
2023/05/25 03:09:11;;;;;;;11.82;9.23;;;;;;;;;;5073015;28;20107;-64
2023/05/25 03:11:38;;;;;;;10.35;8.18;;;;;;;;;;5072868;28;20020;-67
2023/05/25 03:14:04;;;;;;;12.23;8.80;;;;;;;;;;5074378;28;20055;-67
2023/05/25 03:16:35;;;;;;;10.35;8.80;;;;;;;;;;5072855;28;20028;-68
2023/05/25 03:19:02;;;;;;;12.27;8.77;;;;;;;;;;5073132;28;20042;-65
2023/05/25 03:21:27;;;;;;;9.88;8.63;;;;;;;;;;5039953;28;20028;-66
2023/05/25 03:23:53;;;;;;;10.48;8.68;;;;;;;;;;5072763;28;20070;-64
2023/05/25 03:26:18;;;;;;;10.40;9.25;;;;;;;;;;5056386;28;20032;-64
2023/05/25 03:28:45;;;;;;;10.38;8.80;;;;;;;;;;5072602;28;20020;-64
2023/05/25 03:31:11;;;;;;;11.23;8.77;;;;;;;;;;5072467;28;20029;-63
2023/05/25 03:33:37;;;;;;;9.48;8.13;;;;;;;;;;5072027;28;20024;-63
2023/05/25 03:36:07;;;;;;;12.27;9.00;;;;;;;;;;5071883;28;20051;-64
2023/05/25 03:38:33;;;;;;;9.65;8.65;;;;;;;;;;5039184;28;20025;-64
2023/05/25 03:40:59;;;;;;;9.88;7.75;;;;;;;;;;5072758;28;20028;-66
2023/05/25 03:43:25;;;;;;;10.07;8.75;;;;;;;;;;5072472;28;20035;-66
2023/05/25 03:45:51;;;;;;;10.75;8.70;;;;;;;;;;5072029;28;20044;-64
2023/05/25 03:48:17;;;;;;;9.13;8.15;;;;;;;;;;5073458;28;20383;-70
2023/05/25 03:50:42;;;;;;;8.98;7.70;;;;;;;;;;5075380;28;20028;-70
2023/05/25 03:53:08;;;;;;;9.07;8.02;;;;;;;;;;5094086;28;20031;-70
2023/05/25 03:55:33;;;;;;;9.15;7.93;;;;;;;;;;5090059;28;20589;-69
2023/05/25 03:57:59;;;;;;;9.38;8.18;;;;;;;;;;5074686;28;20091;-69
2023/05/25 04:00:25;;;;;;;10.43;8.43;;;;;;;;;;5083323;28;20108;-70
2023/05/25 04:02:51;;;;;;;8.98;7.80;;;;;;;;;;5055415;28;20162;-69
2023/05/25 04:05:17;;;;;;;10.02;7.97;;;;;;;;;;5088966;28;20028;-69
2023/05/25 04:07:45;;;;;;;9.90;8.02;;;;;;;;;;5059498;28;20020;-67
2023/05/25 04:10:11;;;;;;;8.32;7.43;;;;;;;;;;5094102;28;20035;-70
2023/05/25 04:12:48;;;;;;;9.38;7.95;;;;;;;;;;5093835;28;20048;-64
2023/05/25 04:15:14;;;;;;;8.50;7.63;;;;;;;;;;5092669;28;20024;-69
2023/05/25 04:24:20;;;;;;;8.75;7.53;;;;;;;;;;5025941;28;20429;-70
2023/05/25 04:26:48;;;;;;;10.13;8.15;;;;;;;;;;4997210;28;20036;-69
2023/05/25 04:29:15;;;;;;;13.20;10.77;;;;;;;;;;4976730;28;20061;-70
2023/05/25 04:32:20;;;;;;;10.65;8.95;;;;;;;;;;4972354;28;20077;-67
2023/05/25 04:34:52;;;;;;;9.38;7.78;;;;;;;;;;4972851;28;20042;-72
2023/05/25 04:37:26;;;;;;;8.52;7.68;;;;;;;;;;4987528;28;20078;-71
2023/05/25 04:39:52;;;;;;;10.23;7.97;;;;;;;;;;4999758;28;20028;-69
2023/05/25 04:42:18;;;;;;;9.45;8.05;;;;;;;;;;4995954;28;20022;-72
2023/05/25 04:44:43;;;;;;;9.48;7.13;;;;;;;;;;4995714;28;20432;-72
2023/05/25 04:47:09;;;;;;;8.95;7.20;;;;;;;;;;4995798;28;20474;-72
2023/05/25 04:49:35;;;;;;;7.80;7.05;;;;;;;;;;4995495;28;20029;-72
2023/05/25 04:52:00;;;;;;;8.95;7.70;;;;;;;;;;4995710;28;20030;-72
2023/05/25 04:54:28;;;;;;;7.75;6.95;;;;;;;;;;4995454;28;20363;-72
2023/05/25 04:56:56;;;;;;;7.07;6.32;;;;;;;;;;4980327;28;20060;-72
2023/05/25 04:59:22;;;;;;;7.30;6.63;;;;;;;;;;4995803;28;20029;-72
2023/05/25 05:01:47;;;;;;;9.10;6.97;;;;;;;;;;4995603;28;20029;-72
2023/05/25 05:04:15;;;;;;;8.15;7.35;;;;;;;;;;4994732;28;20116;-71
2023/05/25 05:06:41;;;;;;;7.72;6.93;;;;;;;;;;4996115;28;20095;-71
2023/05/25 05:09:12;;;;;;;7.72;7.00;;;;;;;;;;4982689;28;20021;-71
2023/05/25 05:11:37;;;;;;;7.05;6.32;;;;;;;;;;4998221;28;20030;-71
2023/05/25 05:14:04;;;;;;;13.57;8.25;;;;;;;;;;4998422;28;20065;-77
2023/05/25 05:16:33;;;;;;;8.05;7.05;;;;;;;;;;4998609;28;20022;-69
2023/05/25 05:19:00;;;;;;;7.13;6.30;;;;;;;;;;5015663;28;20044;-70
2023/05/25 05:21:25;;;;;;;8.10;6.50;;;;;;;;;;4998544;28;20120;-73
2023/05/25 05:23:51;;;;;;;8.02;7.13;;;;;;;;;;4997565;28;20468;-73
2023/05/25 05:26:16;;;;;;;8.32;6.55;;;;;;;;;;4998852;28;20154;-73
2023/05/25 05:28:42;;;;;;;8.82;7.32;;;;;;;;;;4997853;28;20030;-73
2023/05/25 05:31:07;;;;;;;8.30;7.43;;;;;;;;;;4998561;28;20043;-72
2023/05/25 05:33:33;;;;;;;8.07;6.22;;;;;;;;;;4997422;28;20065;-72
2023/05/25 05:36:03;;;;;;;8.98;8.07;;;;;;;;;;4997637;28;20389;-71
2023/05/25 05:38:29;;;;;;;6.28;5.68;;;;;;;;;;4998480;28;20034;-71
2023/05/25 05:40:54;;;;;;;9.45;8.48;;;;;;;;;;4998250;28;20040;-72
2023/05/25 05:43:21;;;;;;;9.07;8.18;;;;;;;;;;4997378;28;20052;-74
2023/05/25 05:45:46;;;;;;;10.60;9.50;;;;;;;;;;4995823;28;20061;-73
2023/05/25 05:48:12;;;;;;;8.63;7.82;;;;;;;;;;4995729;28;20033;-73
2023/05/25 05:50:37;;;;;;;11.70;9.13;;;;;;;;;;5013771;28;20022;-73
2023/05/25 05:53:03;;;;;;;10.50;8.70;;;;;;;;;;4997092;28;20045;-72
2023/05/25 05:55:29;;;;;;;10.82;8.52;;;;;;;;;;4996907;28;20017;-73
2023/05/25 05:57:55;;;;;;;9.70;8.70;;;;;;;;;;4997242;28;20034;-73
2023/05/25 06:00:21;;;;;;;11.20;8.23;;;;;;;;;;4998493;28;20028;-73
2023/05/25 06:02:48;;;;;;;9.75;8.75;;;;;;;;;;4998175;28;20437;-68
2023/05/25 06:05:19;;;;;;;9.50;8.20;;;;;;;;;;4995991;28;20062;-68
2023/05/25 06:07:44;;;;;;;8.85;8.00;;;;;;;;;;4996126;28;20026;-73
2023/05/25 06:10:11;;;;;;;10.50;8.43;;;;;;;;;;4995864;28;20036;-73
2023/05/25 06:12:36;;;;;;;10.32;7.97;;;;;;;;;;4995630;28;20030;-73
2023/05/25 06:15:03;;;;;;;9.60;8.68;;;;;;;;;;5013529;28;20490;-73
2023/05/25 06:17:29;;;;;;;10.20;8.30;;;;;;;;;;4995657;28;20034;-73
2023/05/25 06:19:54;;;;;;;9.48;8.15;;;;;;;;;;4997713;28;20018;-73
2023/05/25 06:22:20;;;;;;;10.00;8.30;;;;;;;;;;4997283;28;20046;-73
2023/05/25 06:24:46;;;;;;;11.32;8.38;;;;;;;;;;4997347;28;20424;-73
2023/05/25 06:27:16;;;;;;;10.73;8.70;;;;;;;;;;4997342;28;20029;-73
2023/05/25 06:29:41;;;;;;;12.97;9.27;;;;;;;;;;5014995;28;20026;-73
2023/05/25 06:32:09;;;;;;;10.38;8.35;;;;;;;;;;4997532;28;20667;-73
2023/05/25 06:34:35;;;;;;;7.85;7.03;;;;;;;;;;4997178;28;20489;-73
2023/05/25 06:37:00;;;;;;;9.60;7.72;;;;;;;;;;4997139;28;20065;-73
2023/05/25 06:39:26;;;;;;;11.05;7.60;;;;;;;;;;4997178;28;20026;-73
2023/05/25 06:41:51;;;;;;;9.00;8.05;;;;;;;;;;4997430;28;20389;-73
2023/05/25 06:44:26;;;;;;;10.38;8.20;;;;;;;;;;4997187;28;20045;-73
2023/05/25 06:46:51;;;;;;;9.23;8.27;;;;;;;;;;4996985;28;20042;-69
2023/05/25 06:49:16;;;;;;;9.57;8.15;;;;;;;;;;4996894;28;20462;-73
2023/05/25 06:51:42;;;;;;;8.88;8.07;;;;;;;;;;4996976;28;20054;-73
2023/05/25 06:54:07;;;;;;;8.73;7.72;;;;;;;;;;5014404;28;20018;-73
2023/05/25 06:56:32;;;;;;;9.73;7.75;;;;;;;;;;4996940;28;20429;-73
2023/05/25 06:58:58;;;;;;;8.57;7.65;;;;;;;;;;5014399;28;20018;-73
2023/05/25 07:01:23;;;;;;;9.13;8.15;;;;;;;;;;4996714;28;20550;-73
2023/05/25 07:03:48;;;;;;;9.05;7.68;;;;;;;;;;5014258;28;20428;-73
2023/05/25 07:06:15;;;;;;;8.57;7.28;;;;;;;;;;5014121;28;20404;-73
2023/05/25 07:08:41;;;;;;;7.95;7.13;;;;;;;;;;4996556;28;20033;-73
2023/05/25 07:11:09;;;;;;;9.80;7.25;;;;;;;;;;5014137;28;20026;-73
2023/05/25 07:13:34;;;;;;;10.10;7.22;;;;;;;;;;4996493;28;20021;-73
2023/05/25 07:16:00;;;;;;;8.68;7.85;;;;;;;;;;4996556;28;20390;-73
2023/05/25 07:18:25;;;;;;;8.68;6.93;;;;;;;;;;5014064;28;20033;-73
2023/05/25 07:20:50;;;;;;;8.60;7.70;;;;;;;;;;5013816;28;20101;-73
2023/05/25 07:23:18;;;;;;;8.07;7.28;;;;;;;;;;4996390;28;20057;-73
2023/05/25 07:25:43;;;;;;;9.05;7.13;;;;;;;;;;5013857;28;20038;-73
2023/05/25 07:28:09;;;;;;;7.85;6.40;;;;;;;;;;4996082;28;20018;-73
2023/05/25 07:30:35;;;;;;;7.97;7.22;;;;;;;;;;4996111;28;20077;-73
2023/05/25 07:33:02;;;;;;;8.45;6.88;;;;;;;;;;4996079;28;20425;-73
2023/05/25 07:35:27;;;;;;;8.27;6.60;;;;;;;;;;4996167;28;20022;-74
2023/05/25 07:37:59;;;;;;;8.45;7.45;;;;;;;;;;5013916;28;20033;-73
2023/05/25 07:40:25;;;;;;;9.88;7.45;;;;;;;;;;4996396;28;20104;-73
2023/05/25 07:42:52;;;;;;;8.50;7.30;;;;;;;;;;4979900;28;20125;-73
2023/05/25 07:45:17;;;;;;;10.93;7.47;;;;;;;;;;5013945;28;20029;-73
2023/05/25 07:47:43;;;;;;;8.80;7.90;;;;;;;;;;4996420;28;20107;-73
2023/05/25 07:50:10;;;;;;;8.38;7.57;;;;;;;;;;5013818;28;20041;-73
2023/05/25 07:52:37;;;;;;;8.30;7.40;;;;;;;;;;5013562;28;20018;-73
2023/05/25 07:55:02;;;;;;;9.60;7.43;;;;;;;;;;5013516;28;20041;-73
2023/05/25 07:57:28;;;;;;;8.88;7.97;;;;;;;;;;4995850;28;20026;-73
2023/05/25 07:59:53;;;;;;;8.15;7.35;;;;;;;;;;4995847;28;20032;-73
2023/05/25 08:02:19;;;;;;;9.25;7.60;;;;;;;;;;5013557;28;20485;-73
2023/05/25 08:04:44;;;;;;;8.18;7.38;;;;;;;;;;4995974;28;20033;-74
2023/05/25 08:07:10;;;;;;;9.23;6.90;;;;;;;;;;4995725;28;20417;-73
2023/05/25 08:09:35;;;;;;;7.13;6.43;;;;;;;;;;4995712;28;20401;-73
2023/05/25 08:12:01;;;;;;;10.05;7.55;;;;;;;;;;5013470;28;20102;-73
2023/05/25 08:14:26;;;;;;;8.82;7.93;;;;;;;;;;5013306;28;20026;-73
2023/05/25 08:16:51;;;;;;;8.30;7.47;;;;;;;;;;4995743;28;20037;-73
2023/05/25 08:19:17;;;;;;;8.20;7.30;;;;;;;;;;5013390;28;20026;-73
2023/05/25 08:21:42;;;;;;;8.30;7.50;;;;;;;;;;5013293;28;20034;-73
2023/05/25 08:24:08;;;;;;;8.63;7.72;;;;;;;;;;5013001;28;20069;-73
2023/05/25 08:26:35;;;;;;;8.88;7.97;;;;;;;;;;5013241;28;20474;-73
2023/05/25 08:29:01;;;;;;;9.55;7.63;;;;;;;;;;5013297;28;20038;-73
2023/05/25 08:31:26;;;;;;;9.75;8.23;;;;;;;;;;4979376;28;20033;-73
2023/05/25 08:33:52;;;;;;;8.63;7.80;;;;;;;;;;5013211;28;20117;-73
2023/05/25 08:36:17;;;;;;;8.55;7.72;;;;;;;;;;4979377;28;20053;-73
2023/05/25 08:38:42;;;;;;;9.15;7.18;;;;;;;;;;4995545;28;20037;-73
2023/05/25 08:41:10;;;;;;;8.77;7.88;;;;;;;;;;4996503;28;20029;-73
2023/05/25 08:43:36;;;;;;;11.52;8.57;;;;;;;;;;4999280;28;20091;-73
2023/05/25 08:46:05;;;;;;;10.20;8.20;;;;;;;;;;5016579;28;20389;-73
2023/05/25 08:48:32;;;;;;;8.73;7.82;;;;;;;;;;5016700;28;20041;-73
2023/05/25 08:51:05;;;;;;;13.77;10.80;;;;;;;;;;5016810;28;20040;-73
2023/05/25 08:53:33;;;;;;;11.60;10.43;;;;;;;;;;4999125;28;20121;-73
2023/05/25 08:55:59;;;;;;;11.13;8.70;;;;;;;;;;5016790;28;20073;-73
2023/05/25 08:58:28;;;;;;;10.57;9.18;;;;;;;;;;5016794;28;20018;-73
2023/05/25 09:00:54;;;;;;;12.95;9.07;;;;;;;;;;5016597;28;20153;-73
2023/05/25 09:03:20;;;;;;;14.57;9.52;;;;;;;;;;5016663;28;20018;-73
2023/05/25 09:05:46;;;;;;;11.40;9.75;;;;;;;;;;4998941;28;20038;-73
2023/05/25 09:08:11;;;;;;;12.43;9.80;;;;;;;;;;5016559;28;20033;-73
2023/05/25 09:10:37;;;;;;;12.20;9.85;;;;;;;;;;5016533;28;20038;-73
2023/05/25 09:13:03;;;;;;;11.70;9.48;;;;;;;;;;5016325;28;20026;-73
2023/05/25 09:15:29;;;;;;;10.63;9.13;;;;;;;;;;5016261;28;20367;-73
2023/05/25 09:17:54;;;;;;;12.55;10.23;;;;;;;;;;5016270;28;20456;-73
2023/05/25 09:20:20;;;;;;;10.07;9.10;;;;;;;;;;5016192;28;20041;-73
2023/05/25 09:22:48;;;;;;;11.43;9.20;;;;;;;;;;5016074;28;20054;-72
2023/05/25 09:25:20;;;;;;;10.90;9.45;;;;;;;;;;5016192;28;20041;-73
2023/05/25 09:27:45;;;;;;;10.73;9.40;;;;;;;;;;4998712;28;20034;-73
2023/05/25 09:30:11;;;;;;;11.80;9.95;;;;;;;;;;5016326;28;20026;-73
2023/05/25 09:32:36;;;;;;;12.98;9.35;;;;;;;;;;5016066;28;20030;-73
2023/05/25 09:35:11;;;;;;;10.93;8.57;;;;;;;;;;5015967;28;20022;-73
2023/05/25 09:37:37;;;;;;;11.77;9.55;;;;;;;;;;4998358;28;20038;-73
2023/05/25 09:40:04;;;;;;;10.80;9.68;;;;;;;;;;5015882;28;20041;-73
2023/05/25 09:42:32;;;;;;;10.90;9.27;;;;;;;;;;5065796;23;20048;-73
2023/05/25 09:44:58;;;;;;;12.75;9.15;;;;;;;;;;5098272;28;20028;-73
2023/05/25 09:47:24;;;;;;;13.25;10.80;;;;;;;;;;5097698;28;20122;-73
2023/05/25 09:49:49;;;;;;;11.35;10.13;;;;;;;;;;5116000;28;20074;-73
2023/05/25 09:52:15;;;;;;;11.32;9.48;;;;;;;;;;5097735;28;20073;-74
2023/05/25 09:54:44;;;;;;;10.55;9.25;;;;;;;;;;5115971;28;20020;-73
2023/05/25 09:57:10;;;;;;;9.82;8.77;;;;;;;;;;5115798;28;20448;-73
2023/05/25 09:59:35;;;;;;;13.80;9.90;;;;;;;;;;5115832;28;20047;-73
2023/05/25 10:02:01;;;;;;;10.32;9.07;;;;;;;;;;5131981;27;20027;-73
2023/05/25 10:04:26;;;;;;;10.82;9.68;;;;;;;;;;5115718;28;20100;-73
2023/05/25 10:06:52;;;;;;;10.55;9.48;;;;;;;;;;5115619;28;20015;-73
2023/05/25 10:09:18;;;;;;;13.70;10.02;;;;;;;;;;5097471;28;20035;-73
2023/05/25 10:11:44;;;;;;;12.02;9.75;;;;;;;;;;5097893;28;20136;-68
2023/05/25 10:14:12;;;;;;;10.15;8.27;;;;;;;;;;5115565;28;20049;-68
2023/05/25 10:16:38;;;;;;;10.00;8.63;;;;;;;;;;5115442;28;20576;-69
2023/05/25 10:19:05;;;;;;;10.60;9.52;;;;;;;;;;5115504;28;20203;-68
2023/05/25 10:21:31;;;;;;;11.02;9.73;;;;;;;;;;5096980;28;20088;-68
2023/05/25 10:24:13;;;;;;;9.80;8.82;;;;;;;;;;5115373;28;20102;-68
2023/05/25 10:26:39;;;;;;;9.50;8.52;;;;;;;;;;5096896;28;20034;-68
2023/05/25 10:29:05;;;;;;;10.38;9.27;;;;;;;;;;5096697;28;20024;-68
2023/05/25 10:31:32;;;;;;;12.77;10.07;;;;;;;;;;5096852;28;20028;-68
2023/05/25 10:33:58;;;;;;;15.00;10.98;;;;;;;;;;5115385;28;20019;-69
2023/05/25 10:36:26;;;;;;;15.40;13.48;;;;;;;;;;5131015;27;20395;-68
2023/05/25 10:38:51;;;;;;;18.02;10.95;;;;;;;;;;5096879;28;20073;-68
2023/05/25 10:41:18;;;;;;;17.52;11.55;;;;;;;;;;5114937;28;20031;-69
2023/05/25 10:43:43;;;;;;;14.60;10.38;;;;;;;;;;5114798;28;20042;-69
2023/05/25 10:46:09;;;;;;;12.77;10.00;;;;;;;;;;5114814;28;20031;-68
2023/05/25 10:48:38;;;;;;;13.70;9.85;;;;;;;;;;5115184;28;20036;-68
2023/05/25 10:51:05;;;;;;;13.38;9.77;;;;;;;;;;5114833;28;20036;-68
2023/05/25 10:53:32;;;;;;;11.15;9.68;;;;;;;;;;5114776;28;20024;-68
2023/05/25 10:56:05;;;;;;;10.48;8.90;;;;;;;;;;5082354;22;20420;-73
2023/05/25 10:58:31;;;;;;;10.90;8.90;;;;;;;;;;5073154;28;20047;-73
2023/05/25 11:01:01;;;;;;;9.70;8.55;;;;;;;;;;5076218;28;20475;-73
2023/05/25 11:03:44;;;;;;;10.70;9.20;;;;;;;;;;5093589;28;20035;-73
2023/05/25 11:06:10;;;;;;;10.30;8.30;;;;;;;;;;5094024;28;20479;-73
2023/05/25 11:08:55;;;;;;;9.05;8.15;;;;;;;;;;5094068;28;20069;-73
2023/05/25 11:11:21;;;;;;;10.32;8.30;;;;;;;;;;5109865;28;20031;-73
2023/05/25 11:13:48;;;;;;;9.25;8.27;;;;;;;;;;5075953;28;20018;-73
2023/05/25 11:16:16;;;;;;;9.70;8.00;;;;;;;;;;5094170;28;20115;-73
2023/05/25 11:18:58;;;;;;;8.60;7.65;;;;;;;;;;5094035;28;20468;-73
2023/05/25 11:21:26;;;;;;;9.57;8.18;;;;;;;;;;5093980;28;20036;-73
2023/05/25 11:23:54;;;;;;;11.45;8.13;;;;;;;;;;5075755;28;20036;-73
2023/05/25 11:26:21;;;;;;;12.80;9.15;;;;;;;;;;5093886;28;20076;-68
2023/05/25 11:28:47;;;;;;;10.40;8.60;;;;;;;;;;5093937;28;20036;-69
2023/05/25 11:31:15;;;;;;;9.73;8.73;;;;;;;;;;5093924;28;20030;-69
2023/05/25 11:33:43;;;;;;;9.65;8.57;;;;;;;;;;5075838;28;20111;-69
2023/05/25 11:36:10;;;;;;;10.50;8.63;;;;;;;;;;5093610;28;20036;-69
2023/05/25 11:38:40;;;;;;;10.15;8.25;;;;;;;;;;5093743;28;20042;-69
2023/05/25 11:41:05;;;;;;;;;;;;;;;;;;5110155;28;20035;-69
2023/05/25 11:43:32;;;;;;;8.33;7.17;;;;;;;;;;5093506;28;19904;-69
2023/05/25 11:45:59;;;;;;;8.93;7.97;;;;;;;;;;5075407;28;20278;-68
2023/05/25 11:48:25;;;;;;;10.63;8.32;;;;;;;;;;5093466;28;20099;-69
2023/05/25 11:51:02;;;;;;;8.85;7.97;;;;;;;;;;5093371;28;20535;-68
2023/05/25 11:53:28;;;;;;;9.13;8.23;;;;;;;;;;5109143;28;20043;-69
2023/05/25 11:55:53;;;;;;;10.15;8.98;;;;;;;;;;5093265;28;20096;-68
2023/05/25 11:58:19;;;;;;;9.02;8.13;;;;;;;;;;5109131;28;20024;-68
2023/05/25 12:00:44;;;;;;;9.70;7.60;;;;;;;;;;5093378;28;20388;-68
2023/05/25 12:03:26;;;;;;;9.57;8.25;;;;;;;;;;5075290;28;20031;-68
2023/05/25 12:05:52;;;;;;;8.30;7.38;;;;;;;;;;5093180;28;20384;-69
2023/05/25 12:08:30;;;;;;;9.38;8.48;;;;;;;;;;5093246;28;20031;-69
2023/05/25 12:10:55;;;;;;;9.32;8.38;;;;;;;;;;5109104;28;20052;-68
2023/05/25 12:13:21;;;;;;;10.77;9.68;;;;;;;;;;5075357;28;20481;-73
2023/05/25 12:15:46;;;;;;;9.55;8.15;;;;;;;;;;5095535;28;20384;-73
2023/05/25 12:18:12;;;;;;;11.40;8.77;;;;;;;;;;5097414;28;20028;-73
2023/05/25 12:20:39;;;;;;;9.43;8.43;;;;;;;;;;5113097;28;20028;-73
2023/05/25 12:23:05;;;;;;;10.73;8.98;;;;;;;;;;5113000;28;20024;-73
2023/05/25 12:25:31;;;;;;;10.27;9.05;;;;;;;;;;5097435;28;20042;-73
2023/05/25 12:28:14;;;;;;;9.13;7.85;;;;;;;;;;5112906;28;20039;-73
2023/05/25 12:30:40;;;;;;;9.15;8.25;;;;;;;;;;5097151;28;20024;-73
2023/05/25 12:33:05;;;;;;;7.82;7.13;;;;;;;;;;5097159;28;20047;-73
2023/05/25 12:35:49;;;;;;;9.57;8.57;;;;;;;;;;5097016;28;20383;-73
2023/05/25 12:38:18;;;;;;;10.77;8.13;;;;;;;;;;5078850;28;20050;-73
2023/05/25 12:40:43;;;;;;;8.50;7.70;;;;;;;;;;5096972;28;20039;-73
2023/05/25 12:43:10;;;;;;;9.20;8.30;;;;;;;;;;5078587;28;20020;-73
2023/05/25 12:45:43;;;;;;;9.25;8.30;;;;;;;;;;5096931;28;20387;-73
2023/05/25 12:48:08;;;;;;;11.25;7.65;;;;;;;;;;5096706;28;20040;-73
2023/05/25 12:50:34;;;;;;;9.20;7.47;;;;;;;;;;5096798;28;20074;-73
2023/05/25 12:53:00;;;;;;;8.82;7.53;;;;;;;;;;5061816;28;20115;-73
2023/05/25 12:55:26;;;;;;;9.98;7.85;;;;;;;;;;5096442;28;20036;-73
2023/05/25 12:57:52;;;;;;;9.40;8.00;;;;;;;;;;5078402;28;20020;-73
2023/05/25 13:00:25;;;;;;;10.75;8.18;;;;;;;;;;5096620;28;20617;-73
2023/05/25 13:02:50;;;;;;;8.57;7.72;;;;;;;;;;5096606;28;20024;-73
2023/05/25 13:05:23;;;;;;;8.70;7.28;;;;;;;;;;5061911;28;20043;-73
2023/05/25 13:07:48;;;;;;;8.60;6.93;;;;;;;;;;5097195;28;20047;-73
2023/05/25 13:10:16;;;;;;;9.00;6.97;;;;;;;;;;5136291;22;20060;-69
2023/05/25 13:12:42;;;;;;;7.65;6.95;;;;;;;;;;5096245;28;20020;-64
2023/05/25 13:15:08;;;;;;;9.07;7.60;;;;;;;;;;5078137;28;20411;-70
2023/05/25 13:17:34;;;;;;;7.40;6.75;;;;;;;;;;5096534;28;20035;-68
2023/05/25 13:19:59;;;;;;;7.20;6.10;;;;;;;;;;5096569;28;20038;-68
2023/05/25 13:22:25;;;;;;;7.72;7.03;;;;;;;;;;5096500;28;20032;-62
2023/05/25 13:24:50;;;;;;;8.18;7.30;;;;;;;;;;5078626;28;20118;-62
2023/05/25 13:27:16;;;;;;;7.82;7.03;;;;;;;;;;5095552;28;20407;-62
2023/05/25 13:29:41;;;;;;;8.00;6.80;;;;;;;;;;5078094;28;20024;-62
2023/05/25 13:32:12;;;;;;;8.30;7.43;;;;;;;;;;5096051;28;20129;-62
2023/05/25 13:34:38;;;;;;;9.60;7.65;;;;;;;;;;5095628;28;20024;-63
2023/05/25 13:37:03;;;;;;;7.78;7.07;;;;;;;;;;5112196;28;20035;-63
2023/05/25 13:39:29;;;;;;;6.88;6.22;;;;;;;;;;5111912;28;20501;-62
2023/05/25 13:41:56;;;;;;;7.72;7.00;;;;;;;;;;5096602;28;20036;-62
2023/05/25 13:44:21;;;;;;;8.00;6.97;;;;;;;;;;5077928;28;20028;-62
2023/05/25 13:46:47;;;;;;;7.85;7.07;;;;;;;;;;5095665;28;20390;-62
2023/05/25 13:49:14;;;;;;;7.63;6.93;;;;;;;;;;5096277;28;20035;-62
2023/05/25 13:51:40;;;;;;;7.60;6.90;;;;;;;;;;5096000;28;20028;-62
2023/05/25 13:54:08;;;;;;;7.05;6.45;;;;;;;;;;5096143;28;20082;-62
2023/05/25 13:56:33;;;;;;;7.50;6.80;;;;;;;;;;5095181;28;20042;-62
2023/05/25 13:58:58;;;;;;;6.95;6.28;;;;;;;;;;5077392;28;20020;-68
2023/05/25 14:01:25;;;;;;;7.00;6.40;;;;;;;;;;5095383;28;20036;-62
2023/05/25 14:03:51;;;;;;;7.03;6.43;;;;;;;;;;5095718;28;20471;-62
2023/05/25 14:06:16;;;;;;;7.72;6.97;;;;;;;;;;5096100;28;20020;-62
2023/05/25 14:08:41;;;;;;;8.10;6.35;;;;;;;;;;5095916;28;20419;-62
2023/05/25 14:11:07;;;;;;;7.68;6.97;;;;;;;;;;5096148;28;20051;-62
2023/05/25 14:13:34;;;;;;;8.68;7.25;;;;;;;;;;5095485;28;20027;-62
2023/05/25 14:16:00;;;;;;;7.70;7.00;;;;;;;;;;5095445;28;20024;-62
2023/05/25 14:18:26;;;;;;;12.25;8.60;;;;;;;;;;5095688;28;20478;-62
2023/05/25 14:20:51;;;;;;;8.02;7.32;;;;;;;;;;5095313;28;20022;-62
2023/05/25 14:23:18;;;;;;;8.00;7.30;;;;;;;;;;5095605;28;20452;-62
2023/05/25 14:25:43;;;;;;;9.10;7.80;;;;;;;;;;5095729;28;20079;-62
2023/05/25 14:28:09;;;;;;;9.10;8.13;;;;;;;;;;5095414;28;20482;-62
2023/05/25 14:30:34;;;;;;;8.25;7.32;;;;;;;;;;5095648;28;20020;-62
2023/05/25 14:32:59;;;;;;;11.27;9.25;;;;;;;;;;5095400;28;20084;-62
2023/05/25 14:35:25;;;;;;;10.85;8.73;;;;;;;;;;5095331;28;20028;-62
2023/05/25 14:37:50;;;;;;;9.40;8.50;;;;;;;;;;5094721;28;20067;-62
2023/05/25 14:40:16;;;;;;;8.52;7.72;;;;;;;;;;5076289;28;20032;-62
2023/05/25 14:42:41;;;;;;;8.68;7.68;;;;;;;;;;5095032;28;20078;-62